Time;durP1;ratioP1;P1;durP2;ratioP2;P2;SDS_P1;SDS_P2;PMS_P1;PMS_P2;Temp;Humidity;BMP_temperature;BMP_pressure;BME280_temperature;BME280_humidity;BME280_pressure;Samples;Min_cycle;Max_cycle;Signal;HPM_P1;HPM_P2
2022/09/05 00:02:05;;;;;;;5.90;4.35;;;;;;;18.05;63.76;101670.06;4942769;29;20056;-92
2022/09/05 00:04:46;;;;;;;10.65;4.30;;;;;;;18.02;63.52;101664.03;4942778;29;20056;-93
2022/09/05 00:07:20;;;;;;;6.32;4.50;;;;;;;17.98;64.54;101665.22;4952096;29;20040;-93
2022/09/05 00:10:14;;;;;;;8.73;4.53;;;;;;;17.92;63.74;101661.09;4957912;29;20044;-93
2022/09/05 00:12:41;;;;;;;9.02;5.22;;;;;;;17.88;65.12;101663.13;4986306;28;20055;-92
2022/09/05 00:15:32;;;;;;;7.82;4.70;;;;;;;17.85;63.91;101652.59;4990886;28;20129;-94
2022/09/05 00:18:15;;;;;;;7.03;4.70;;;;;;;17.86;64.35;101662.38;4966771;28;20172;-93
2022/09/05 00:20:58;;;;;;;8.00;5.10;;;;;;;17.84;63.99;101658.06;4973897;28;20045;-94
2022/09/05 00:23:57;;;;;;;8.90;4.82;;;;;;;17.82;63.98;101663.56;4975417;28;20089;-94
2022/09/05 00:26:43;;;;;;;9.70;5.00;;;;;;;17.80;64.92;101660.09;4975850;28;20048;-93
2022/09/05 00:29:31;;;;;;;7.40;5.25;;;;;;;17.78;63.87;101656.66;4977985;28;20058;-93
2022/09/05 00:32:05;;;;;;;7.55;5.22;;;;;;;17.71;64.33;101663.38;4958366;28;20042;-93
2022/09/05 00:34:52;;;;;;;7.93;5.78;;;;;;;17.69;64.76;101659.97;4977153;28;20039;-94
2022/09/05 00:37:40;;;;;;;7.13;5.10;;;;;;;17.67;63.94;101656.50;4957272;28;20046;-94
2022/09/05 00:40:33;;;;;;;7.75;5.60;;;;;;;17.66;64.55;101654.78;4975116;28;20119;-94
2022/09/05 00:43:26;;;;;;;6.78;5.35;;;;;;;17.55;64.89;101642.03;4971223;28;20051;-93
2022/09/05 00:45:57;;;;;;;8.63;5.43;;;;;;;17.56;64.96;101656.38;4960432;28;20039;-94
2022/09/05 00:48:43;;;;;;;7.07;4.65;;;;;;;17.49;64.76;101657.75;4976855;28;20053;-93
2022/09/05 00:51:54;;;;;;;5.38;4.30;;;;;;;17.47;64.45;101656.97;4976368;28;20034;-93
2022/09/05 00:54:22;;;;;;;6.13;4.32;;;;;;;17.32;66.44;101648.97;4935256;28;20074;-92
2022/09/05 00:56:47;;;;;;;5.57;4.63;;;;;;;17.30;66.13;101650.00;4976804;28;20030;-92
2022/09/05 00:59:39;;;;;;;5.47;4.47;;;;;;;17.23;66.45;101648.72;4976837;28;20049;-93
2022/09/05 01:02:34;;;;;;;7.78;4.95;;;;;;;17.23;65.90;101654.09;4968318;28;20309;-93
2022/09/05 01:05:15;;;;;;;6.45;4.70;;;;;;;17.16;66.94;101648.25;4975363;28;20031;-93
2022/09/05 01:07:50;;;;;;;8.95;4.70;;;;;;;17.12;67.15;101654.78;4975739;28;20519;-93
2022/09/05 01:10:41;;;;;;;5.50;4.43;;;;;;;17.12;65.97;101647.56;4974088;28;20337;-93
2022/09/05 01:13:34;;;;;;;7.35;4.40;;;;;;;17.07;66.17;101651.53;4955883;28;20038;-93
2022/09/05 01:16:43;;;;;;;6.80;4.90;;;;;;;17.04;66.41;101651.72;4977297;28;20081;-92
2022/09/05 01:19:37;;;;;;;6.13;4.78;;;;;;;16.96;66.57;101641.47;4968539;28;20105;-93
2022/09/05 01:22:16;;;;;;;5.88;4.25;;;;;;;16.91;66.80;101644.47;4964500;28;20571;-93
2022/09/05 01:25:19;;;;;;;7.70;4.57;;;;;;;16.87;67.18;101651.00;4967236;28;20066;-93
2022/09/05 01:28:12;;;;;;;5.50;4.18;;;;;;;16.76;67.76;101642.78;4972752;28;20042;-92
2022/09/05 01:30:58;;;;;;;6.38;5.40;;;;;;;16.75;67.83;101649.09;4967410;28;20100;-92
2022/09/05 01:33:47;;;;;;;7.38;4.38;;;;;;;16.78;67.21;101646.22;4974171;28;20070;-93
2022/09/05 01:36:44;;;;;;;6.30;4.95;;;;;;;16.75;67.97;101653.63;4976209;28;20046;-93
2022/09/05 01:39:39;;;;;;;6.18;4.75;;;;;;;16.65;67.62;101643.41;4974481;28;20045;-93
2022/09/05 01:42:24;;;;;;;7.47;4.70;;;;;;;16.62;68.38;101656.19;4960703;28;20031;-92
2022/09/05 01:45:02;;;;;;;8.25;4.95;;;;;;;16.58;68.88;101651.97;4974655;28;20045;-93
2022/09/05 01:47:48;;;;;;;9.48;5.40;;;;;;;16.51;68.56;101654.19;4973599;28;20027;-93
2022/09/05 01:50:31;;;;;;;5.43;4.68;;;;;;;16.47;68.71;101651.78;4973236;28;20055;-92
2022/09/05 01:53:15;;;;;;;7.63;5.55;;;;;;;16.48;69.73;101657.06;4974388;28;20078;-93
2022/09/05 01:56:18;;;;;;;6.25;5.65;;;;;;;16.43;68.87;101654.69;4976570;28;20038;-94
2022/09/05 01:58:59;;;;;;;8.43;5.60;;;;;;;16.36;69.38;101650.63;4976608;28;20062;-93
2022/09/05 02:01:46;;;;;;;6.97;5.35;;;;;;;16.37;69.61;101657.72;4974543;28;20038;-93
2022/09/05 02:04:30;;;;;;;6.03;5.07;;;;;;;16.34;69.37;101649.84;4975483;28;20058;-94
2022/09/05 02:07:05;;;;;;;;;;;;;;;16.43;66.96;101653.81;4974578;28;20066;-93
2022/09/05 02:09:47;;;;;;;6.30;5.60;;;;;;;16.33;69.33;101652.63;4974356;28;19925;-93
2022/09/05 02:12:45;;;;;;;6.25;5.68;;;;;;;16.32;69.20;101651.78;4971739;28;20129;-92
2022/09/05 02:15:27;;;;;;;9.73;5.93;;;;;;;16.26;69.20;101636.06;4975707;28;20061;-94
2022/09/05 02:18:01;;;;;;;8.57;6.25;;;;;;;16.25;69.96;101646.88;4976582;28;20035;-94
2022/09/05 02:20:41;;;;;;;9.02;5.82;;;;;;;16.23;70.07;101652.34;4975931;28;20039;-92
2022/09/05 02:23:18;;;;;;;9.55;6.70;;;;;;;16.19;70.61;101650.81;4970948;28;20038;-92
2022/09/05 02:25:49;;;;;;;7.75;6.82;;;;;;;16.19;70.76;101649.00;4973119;28;20126;-94
2022/09/05 02:28:39;;;;;;;10.57;7.10;;;;;;;16.22;69.96;101657.81;4974957;28;20031;-93
2022/09/05 02:31:17;;;;;;;8.52;7.57;;;;;;;16.16;70.22;101654.53;4974141;28;20039;-93
2022/09/05 02:33:53;;;;;;;8.75;6.85;;;;;;;16.11;71.16;101659.34;4964337;28;20031;-92
2022/09/05 02:36:51;;;;;;;10.60;7.40;;;;;;;16.13;69.68;101661.91;4974441;28;20481;-93
2022/09/05 02:39:28;;;;;;;11.57;8.43;;;;;;;16.07;70.49;101657.81;4943377;28;20077;-93
2022/09/05 02:42:01;;;;;;;9.73;7.93;;;;;;;16.06;71.15;101660.59;4970236;28;20050;-92
2022/09/05 02:44:39;;;;;;;10.20;7.60;;;;;;;16.07;70.88;101659.63;4978032;28;20237;-93
2022/09/05 02:47:14;;;;;;;10.73;8.15;;;;;;;16.05;71.37;101661.53;4974541;28;20034;-93
2022/09/05 02:50:05;;;;;;;12.80;8.63;;;;;;;16.08;70.21;101667.56;4975064;28;20070;-93
2022/09/05 02:52:37;;;;;;;11.30;8.55;;;;;;;16.02;71.29;101662.59;4972903;28;21333;-93
2022/09/05 02:55:13;;;;;;;14.15;8.65;;;;;;;16.01;70.71;101658.19;4974895;28;20035;-93
2022/09/05 02:57:49;;;;;;;11.65;9.13;;;;;;;15.99;71.49;101672.66;4971457;28;20185;-93
2022/09/05 03:00:20;;;;;;;12.48;9.80;;;;;;;15.96;71.13;101662.94;4969438;28;20031;-93
2022/09/05 03:03:15;;;;;;;14.70;9.48;;;;;;;15.95;70.98;101669.28;4971714;28;20043;-94
2022/09/05 03:06:01;;;;;;;12.15;9.65;;;;;;;15.93;70.94;101664.00;4973797;28;20039;-91
2022/09/05 03:08:59;;;;;;;10.57;9.27;;;;;;;15.92;71.35;101664.94;4973624;28;20026;-92
2022/09/05 03:12:01;;;;;;;13.40;9.40;;;;;;;15.90;70.86;101661.50;4965676;28;20075;-92
2022/09/05 03:14:33;;;;;;;12.77;9.93;;;;;;;15.81;71.67;101654.00;4953235;28;20042;-92
2022/09/05 03:17:07;;;;;;;17.20;9.75;;;;;;;15.78;71.73;101658.69;4965690;28;20037;-92
2022/09/05 03:20:08;;;;;;;12.13;10.07;;;;;;;15.79;71.04;101650.53;4973975;28;20065;-93
2022/09/05 03:22:42;;;;;;;11.98;9.98;;;;;;;15.75;72.08;101651.69;4971638;28;20038;-93
2022/09/05 03:25:46;;;;;;;12.00;9.35;;;;;;;15.77;71.13;101655.16;4969089;28;20039;-93
2022/09/05 03:28:23;;;;;;;11.35;10.05;;;;;;;15.74;71.98;101665.19;4959403;28;20054;-93
2022/09/05 03:31:18;;;;;;;11.77;9.98;;;;;;;15.69;72.35;101665.47;4972544;28;20046;-92
2022/09/05 03:34:15;;;;;;;15.00;11.05;;;;;;;15.67;71.75;101665.59;4964469;28;20031;-92
2022/09/05 03:37:11;;;;;;;12.20;9.75;;;;;;;15.63;72.01;101661.31;4974581;28;20039;-93
2022/09/05 03:40:21;;;;;;;12.45;10.50;;;;;;;15.63;71.91;101665.78;4966516;28;20042;-94
2022/09/05 03:43:35;;;;;;;12.50;10.15;;;;;;;15.61;71.85;101659.66;4971832;28;20047;-92
2022/09/05 03:46:24;;;;;;;11.52;9.85;;;;;;;15.59;73.09;101657.09;4959264;28;20126;-93
2022/09/05 03:49:01;;;;;;;11.02;9.73;;;;;;;15.56;72.83;101657.25;4979864;28;20103;-92
2022/09/05 03:51:46;;;;;;;12.02;10.18;;;;;;;15.55;72.46;101654.63;4964862;28;20031;-91
2022/09/05 03:54:27;;;;;;;11.70;10.50;;;;;;;15.51;72.94;101650.41;4985900;28;20033;-93
2022/09/05 03:57:05;;;;;;;11.48;9.75;;;;;;;15.49;73.37;101649.66;4995978;28;20058;-92
2022/09/05 03:59:46;;;;;;;12.15;9.73;;;;;;;15.46;72.81;101648.00;4995249;28;20045;-93
2022/09/05 04:02:16;;;;;;;11.55;10.30;;;;;;;15.37;73.57;101633.31;4996162;28;20047;-92
2022/09/05 04:04:48;;;;;;;13.57;10.57;;;;;;;15.36;74.21;101645.00;4998083;28;20027;-93
2022/09/05 04:07:38;;;;;;;11.38;10.20;;;;;;;15.35;73.45;101645.09;4996334;28;20031;-92
2022/09/05 04:10:12;;;;;;;12.80;10.20;;;;;;;15.30;74.01;101648.06;4991724;28;20042;-92
2022/09/05 04:12:48;;;;;;;12.82;10.15;;;;;;;15.29;74.05;101653.47;4996404;28;20026;-91
2022/09/05 04:15:27;;;;;;;13.18;10.35;;;;;;;15.25;74.51;101655.47;4980571;28;20041;-93
2022/09/05 04:17:58;;;;;;;13.93;9.75;;;;;;;15.21;74.58;101664.66;4983742;28;20030;-93
2022/09/05 04:20:38;;;;;;;11.98;10.27;;;;;;;15.24;74.20;101666.31;4996338;28;20031;-93
2022/09/05 04:23:31;;;;;;;12.93;10.18;;;;;;;15.19;74.17;101667.44;4988380;28;20015;-92
2022/09/05 04:26:05;;;;;;;12.30;10.23;;;;;;;15.17;74.61;101663.09;4971731;28;20034;-93
2022/09/05 04:28:39;;;;;;;13.85;9.70;;;;;;;15.12;74.48;101659.81;4995333;28;20035;-92
2022/09/05 04:31:35;;;;;;;11.30;9.35;;;;;;;15.10;74.67;101657.22;4994137;28;20164;-92
2022/09/05 04:34:26;;;;;;;10.98;9.60;;;;;;;15.05;74.16;101647.69;4990745;28;20045;-92
2022/09/05 04:37:06;;;;;;;11.38;9.20;;;;;;;15.02;74.34;101653.25;4984097;28;20050;-92
2022/09/05 04:39:33;;;;;;;13.77;9.75;;;;;;;14.99;75.52;101659.66;4970672;28;20027;-93
2022/09/05 04:42:06;;;;;;;12.18;10.30;;;;;;;15.02;75.15;101658.63;4959229;28;20074;-91
2022/09/05 04:44:47;;;;;;;10.77;9.02;;;;;;;15.02;75.25;101658.63;4977092;28;20039;-94
2022/09/05 04:47:22;;;;;;;11.73;9.60;;;;;;;14.97;75.28;101660.72;4973378;28;20031;-92
2022/09/05 04:50:03;;;;;;;14.98;10.57;;;;;;;14.94;75.16;101667.94;4976458;28;20029;-94
2022/09/05 04:52:59;;;;;;;14.02;10.73;;;;;;;14.92;75.17;101669.88;4977717;28;20062;-93
2022/09/05 04:55:27;;;;;;;11.60;9.98;;;;;;;14.82;75.32;101662.41;4968099;28;20038;-94
2022/09/05 04:58:20;;;;;;;11.05;9.65;;;;;;;14.77;74.89;101668.03;4976343;28;20499;-92
2022/09/05 05:01:29;;;;;;;10.65;9.50;;;;;;;14.73;75.33;101687.91;4974370;28;20039;-93
2022/09/05 05:03:55;;;;;;;14.45;10.65;;;;;;;14.67;76.57;101680.19;4877898;29;20096;-93
2022/09/05 05:06:37;;;;;;;13.68;10.45;;;;;;;14.72;76.74;101691.53;4878160;29;20564;-94
2022/09/05 05:09:26;;;;;;;13.25;10.63;;;;;;;14.76;75.66;101690.44;4881362;29;20102;-93
2022/09/05 05:11:58;;;;;;;13.82;10.77;;;;;;;14.75;76.84;101685.13;4866086;29;20030;-93
2022/09/05 05:14:34;;;;;;;12.75;11.30;;;;;;;14.76;76.31;101690.44;4867945;29;20076;-92
2022/09/05 05:17:25;;;;;;;14.40;10.88;;;;;;;14.79;76.71;101690.22;4877731;29;20041;-92
2022/09/05 05:19:59;;;;;;;15.27;11.85;;;;;;;14.79;76.87;101686.69;4878918;29;20495;-93
2022/09/05 05:22:25;;;;;;;14.30;11.50;;;;;;;14.79;76.72;101674.16;4877819;29;20045;-92
2022/09/05 05:24:55;;;;;;;14.25;11.90;;;;;;;14.85;76.62;101679.19;4867401;29;20017;-92
2022/09/05 05:27:55;;;;;;;13.52;10.98;;;;;;;14.84;76.96;101681.94;4882106;29;20395;-93
2022/09/05 05:30:29;;;;;;;15.70;11.55;;;;;;;14.89;76.48;101691.47;4844117;29;20049;-92
2022/09/05 05:32:55;;;;;;;;;;;;;;;14.94;74.41;101692.06;4829459;29;20054;-94
2022/09/05 05:35:30;;;;;;;16.40;11.95;;;;;;;14.91;76.51;101686.88;4826490;29;19935;-94
2022/09/05 05:38:18;;;;;;;16.85;12.07;;;;;;;14.93;76.09;101687.66;4824315;29;20069;-92
2022/09/05 05:40:50;;;;;;;16.42;13.23;;;;;;;14.93;76.77;101685.00;4860847;29;20044;-93
2022/09/05 05:43:36;;;;;;;25.17;17.77;;;;;;;14.97;76.28;101692.88;4924632;29;20055;-95
2022/09/05 05:46:02;;;;;;;27.40;19.05;;;;;;;14.95;77.08;101679.53;4936548;29;20138;-93
2022/09/05 05:48:36;;;;;;;27.45;20.08;;;;;;;15.01;76.60;101686.38;4944153;29;20031;-92
2022/09/05 05:51:25;;;;;;;20.95;16.58;;;;;;;15.04;76.57;101695.09;4937828;29;20044;-91
2022/09/05 05:54:12;;;;;;;22.95;16.83;;;;;;;15.11;76.17;101695.63;4938636;29;20152;-93
2022/09/05 05:57:15;;;;;;;18.70;13.43;;;;;;;15.19;75.59;101694.25;4924399;29;20424;-93
2022/09/05 05:59:40;;;;;;;18.48;13.05;;;;;;;15.29;75.99;101694.56;4927606;29;20032;-94
2022/09/05 06:02:34;;;;;;;13.95;12.40;;;;;;;15.49;74.80;101695.25;4929027;29;20062;-93
2022/09/05 06:05:05;;;;;;;;;;;;;;;15.72;73.54;101700.19;4964332;28;20101;-93
2022/09/05 06:07:52;;;;;;;16.90;11.57;;;;;;;16.08;73.52;101698.94;4980348;28;19929;-92
2022/09/05 06:10:32;;;;;;;13.73;11.05;;;;;;;16.49;72.28;101704.47;4978434;28;20090;-92
2022/09/05 06:13:30;;;;;;;13.63;9.98;;;;;;;16.81;71.75;101709.69;4977729;28;20090;-94
2022/09/05 06:16:11;;;;;;;11.43;10.13;;;;;;;17.17;69.81;101696.56;4979045;28;20030;-92
2022/09/05 06:19:07;;;;;;;11.57;9.25;;;;;;;17.54;69.14;101706.75;4975228;28;20037;-93
2022/09/05 06:22:19;;;;;;;10.88;9.43;;;;;;;17.95;67.19;101713.91;4973014;28;20027;-92
2022/09/05 06:25:09;;;;;;;12.48;8.68;;;;;;;18.32;66.26;101713.09;4914262;29;20148;-93
2022/09/05 06:28:09;;;;;;;9.73;8.55;;;;;;;18.62;64.64;101711.91;4912479;29;20028;-93
2022/09/05 06:30:51;;;;;;;10.50;8.55;;;;;;;18.77;64.18;101708.16;4901019;29;20044;-93
2022/09/05 06:33:27;;;;;;;12.48;8.07;;;;;;;19.04;63.84;101713.38;4913493;29;20119;-94
2022/09/05 06:36:17;;;;;;;13.00;8.13;;;;;;;19.32;62.37;101709.53;4912865;29;20055;-91
2022/09/05 06:39:00;;;;;;;10.10;7.90;;;;;;;19.62;61.48;101716.34;4906929;29;20643;-93
2022/09/05 06:42:25;;;;;;;9.15;8.20;;;;;;;19.92;61.58;101712.28;4916173;29;20127;-92
2022/09/05 06:45:09;;;;;;;10.05;7.75;;;;;;;20.23;59.32;101719.78;4877797;29;20061;-92
2022/09/05 06:47:36;;;;;;;9.75;7.38;;;;;;;20.54;57.24;101720.94;4886916;29;20056;-92
2022/09/05 06:50:17;;;;;;;12.75;7.50;;;;;;;20.72;57.44;101715.91;4874838;29;20040;-93
2022/09/05 06:53:22;;;;;;;9.00;6.93;;;;;;;20.96;56.89;101713.09;4878748;29;20045;-90
2022/09/05 06:56:02;;;;;;;10.20;7.88;;;;;;;21.33;55.41;101715.53;4924439;28;20469;-92
2022/09/05 06:59:02;;;;;;;9.35;6.97;;;;;;;21.70;55.66;101709.75;4946329;28;20043;-94
2022/09/05 07:01:35;;;;;;;9.45;7.10;;;;;;;22.01;53.04;101713.44;4945479;28;20039;-93
2022/09/05 07:04:21;;;;;;;9.43;7.30;;;;;;;22.27;53.29;101714.78;4950614;28;20556;-93
2022/09/05 07:07:08;;;;;;;8.98;6.72;;;;;;;22.38;52.09;101711.16;4948211;28;20677;-92
2022/09/05 07:09:58;;;;;;;8.18;6.55;;;;;;;22.56;51.35;101711.38;4949885;29;20061;-92
2022/09/05 07:12:43;;;;;;;8.23;6.95;;;;;;;22.77;50.64;101722.19;4940633;28;20126;-93
2022/09/05 07:15:11;;;;;;;9.48;7.15;;;;;;;22.98;50.43;101724.88;4942483;28;20051;-91
2022/09/05 07:17:47;;;;;;;11.07;6.07;;;;;;;23.21;50.12;101718.25;4936887;28;20129;-92
2022/09/05 07:20:34;;;;;;;10.30;6.60;;;;;;;23.50;49.99;101717.44;4950954;28;20131;-91
2022/09/05 07:23:39;;;;;;;10.85;6.75;;;;;;;23.74;49.60;101726.06;4966534;28;20504;-92
2022/09/05 07:26:08;;;;;;;10.15;6.43;;;;;;;24.01;47.31;101724.50;4971856;28;20504;-91
2022/09/05 07:28:35;;;;;;;6.97;5.95;;;;;;;24.21;47.21;101720.75;4973388;28;20111;-90
2022/09/05 07:31:06;;;;;;;7.25;6.55;;;;;;;24.65;44.97;101722.97;4980003;28;20019;-94
2022/09/05 07:33:36;;;;;;;9.38;7.13;;;;;;;24.84;45.95;101729.22;4986207;28;20023;-90
2022/09/05 07:36:10;;;;;;;9.35;6.80;;;;;;;25.11;44.98;101732.13;4983636;28;20086;-93
2022/09/05 07:38:38;;;;;;;10.18;6.80;;;;;;;25.41;43.81;101737.25;4988330;28;20051;-93
2022/09/05 07:41:31;;;;;;;9.65;7.10;;;;;;;25.57;45.93;101731.13;4986644;28;20042;-93
2022/09/05 07:44:03;;;;;;;8.10;6.55;;;;;;;25.80;43.17;101729.69;4968256;28;20059;-92
2022/09/05 07:46:53;;;;;;;14.13;7.55;;;;;;;25.93;45.36;101736.63;4970555;28;20117;-93
2022/09/05 07:49:22;;;;;;;9.90;6.47;;;;;;;26.12;42.96;101736.44;4966656;28;20069;-93
2022/09/05 07:51:55;;;;;;;9.07;6.65;;;;;;;26.32;43.54;101731.66;4966060;28;20027;-94
2022/09/05 07:54:27;;;;;;;14.38;9.15;;;;;;;26.58;43.12;101734.41;4971957;28;20081;-93
2022/09/05 07:57:02;;;;;;;7.88;6.57;;;;;;;26.85;40.54;101736.09;4950736;28;20030;-94
2022/09/05 07:59:32;;;;;;;7.57;5.90;;;;;;;27.02;38.67;101743.34;4966162;28;20027;-94
2022/09/05 08:01:59;;;;;;;8.27;6.18;;;;;;;27.44;38.02;101749.88;4967558;28;20043;-93
2022/09/05 08:04:30;;;;;;;11.63;6.10;;;;;;;27.93;38.04;101741.78;4949393;28;20130;-93
2022/09/05 08:07:00;;;;;;;7.38;5.47;;;;;;;28.29;37.41;101745.88;4969852;28;20357;-93
2022/09/05 08:09:38;;;;;;;12.82;6.82;;;;;;;28.94;37.41;101753.13;4973757;28;20042;-93
2022/09/05 08:12:30;;;;;;;8.43;7.53;;;;;;;29.60;36.04;101761.13;4972376;28;20023;-94
2022/09/05 08:15:17;;;;;;;6.65;5.30;;;;;;;30.22;36.04;101737.16;4970047;28;20043;-93
2022/09/05 08:18:15;;;;;;;7.05;4.68;;;;;;;30.79;33.20;101743.97;4969095;28;20113;-93
2022/09/05 08:20:59;;;;;;;7.32;4.20;;;;;;;31.32;31.69;101747.47;4929071;29;20050;-93
2022/09/05 08:23:48;;;;;;;7.03;4.30;;;;;;;31.89;33.15;101743.03;4927818;29;20146;-94
2022/09/05 08:26:30;;;;;;;6.47;3.95;;;;;;;32.18;31.10;101740.13;4928296;29;20145;-93
2022/09/05 08:29:05;;;;;;;5.13;4.00;;;;;;;32.56;30.04;101745.31;4926402;29;20051;-92
2022/09/05 08:31:35;;;;;;;8.13;4.45;;;;;;;32.93;29.10;101754.28;4930055;29;20031;-94
2022/09/05 08:34:02;;;;;;;8.35;4.63;;;;;;;33.04;28.79;101748.19;4931418;29;20236;-93
2022/09/05 08:36:40;;;;;;;6.90;4.10;;;;;;;33.35;28.70;101761.47;4928811;29;20545;-92
2022/09/05 08:39:07;;;;;;;8.55;3.78;;;;;;;33.69;27.86;101760.56;4922465;29;20043;-94
2022/09/05 08:41:53;;;;;;;6.60;4.18;;;;;;;33.84;27.70;101751.25;4915235;29;20031;-94
2022/09/05 08:44:24;;;;;;;5.75;3.60;;;;;;;33.78;28.02;101752.94;4932491;29;20138;-93
2022/09/05 08:47:07;;;;;;;7.00;4.03;;;;;;;33.55;27.96;101758.81;4926470;29;20080;-94
2022/09/05 08:49:48;;;;;;;6.72;4.63;;;;;;;33.56;28.09;101760.50;4930598;29;20042;-93
2022/09/05 08:52:27;;;;;;;7.88;4.13;;;;;;;33.81;27.79;101749.75;4927151;29;20137;-93
2022/09/05 08:55:09;;;;;;;5.40;3.97;;;;;;;34.16;28.90;101739.41;4930072;29;20035;-94
2022/09/05 08:58:01;;;;;;;6.82;3.88;;;;;;;34.84;28.53;101738.28;4957370;28;20031;-92
2022/09/05 09:00:32;;;;;;;7.57;4.43;;;;;;;35.45;26.58;101740.63;4973392;28;20054;-94
2022/09/05 09:03:10;;;;;;;7.80;3.90;;;;;;;35.96;24.94;101738.81;4954203;28;20069;-88
2022/09/05 09:05:53;;;;;;;8.98;4.07;;;;;;;36.73;25.32;101739.44;4973877;28;20065;-88
2022/09/05 09:08:40;;;;;;;4.68;3.35;;;;;;;37.01;23.50;101736.16;4950845;28;20027;-89
2022/09/05 09:11:28;;;;;;;5.95;3.85;;;;;;;37.57;24.21;101737.75;4977125;28;20046;-89
2022/09/05 09:14:16;;;;;;;7.90;3.83;;;;;;;37.74;22.85;101738.78;4973405;28;20074;-88
2022/09/05 09:17:00;;;;;;;4.55;2.83;;;;;;;38.45;22.63;101725.03;4969088;28;20041;-87
2022/09/05 09:20:08;;;;;;;4.57;2.80;;;;;;;38.88;22.61;101721.88;4968227;28;20019;-86
2022/09/05 09:22:55;;;;;;;3.50;2.47;;;;;;;39.38;21.22;101729.63;4965341;28;20073;-88
2022/09/05 09:25:28;;;;;;;3.30;2.08;;;;;;;39.20;20.03;101722.25;4973706;28;20049;-93
2022/09/05 09:27:59;;;;;;;3.65;2.28;;;;;;;39.14;18.82;101720.47;4971648;28;20105;-93
2022/09/05 09:30:28;;;;;;;3.72;2.05;;;;;;;39.63;18.46;101714.44;4976023;28;20037;-94
2022/09/05 09:33:01;;;;;;;2.65;1.73;;;;;;;40.07;19.07;101721.94;4974954;28;20022;-94
2022/09/05 09:35:49;;;;;;;5.00;2.03;;;;;;;40.77;19.67;101714.13;4974965;28;20033;-93
2022/09/05 09:38:21;;;;;;;4.20;2.00;;;;;;;41.08;17.78;101722.91;4976347;28;20030;-94
2022/09/05 09:40:49;;;;;;;4.35;2.00;;;;;;;41.68;16.75;101714.38;4980020;28;20027;-95
2022/09/05 09:43:26;;;;;;;3.17;2.08;;;;;;;41.85;18.70;101714.25;4977692;28;20051;-93
2022/09/05 09:46:21;;;;;;;5.57;2.33;;;;;;;42.13;16.34;101715.84;4977686;28;20030;-94
2022/09/05 09:48:59;;;;;;;3.15;1.90;;;;;;;42.27;15.92;101714.34;4971092;28;20110;-93
2022/09/05 09:51:44;;;;;;;4.63;2.17;;;;;;;42.95;17.18;101706.03;4973382;28;20045;-93
2022/09/05 09:54:33;;;;;;;4.22;1.73;;;;;;;42.94;16.21;101712.75;4970303;28;20489;-93
2022/09/05 09:57:17;;;;;;;4.28;1.92;;;;;;;43.19;16.71;101716.78;4967257;28;20082;-92
2022/09/05 10:00:04;;;;;;;3.90;1.67;;;;;;;43.40;15.95;101703.66;4968021;28;20034;-90
2022/09/05 10:03:01;;;;;;;3.63;1.48;;;;;;;43.68;15.70;101710.72;4971324;28;20543;-92
2022/09/05 10:05:50;;;;;;;2.25;1.60;;;;;;;43.79;15.35;101711.56;4972978;28;20400;-92
2022/09/05 10:08:47;;;;;;;2.65;1.40;;;;;;;43.88;14.71;101710.75;4968251;28;20074;-92
2022/09/05 10:11:35;;;;;;;2.08;1.60;;;;;;;43.91;13.89;101696.19;4966788;28;20597;-94
2022/09/05 10:14:38;;;;;;;1.85;1.17;;;;;;;44.39;13.46;101698.63;4969143;28;20027;-89
2022/09/05 10:17:16;;;;;;;1.48;1.33;;;;;;;44.38;13.26;101697.81;4972515;28;20148;-86
2022/09/05 10:19:50;;;;;;;3.20;1.60;;;;;;;44.78;12.73;101689.56;4968828;28;20439;-88
2022/09/05 10:22:37;;;;;;;2.63;1.25;;;;;;;44.78;12.40;101692.38;4971374;28;20086;-95
2022/09/05 10:25:22;;;;;;;2.78;1.20;;;;;;;44.67;12.47;101677.53;4972810;28;20026;-93
2022/09/05 10:28:06;;;;;;;2.65;1.17;;;;;;;45.19;13.50;101690.19;4970218;28;20030;-92
2022/09/05 10:30:42;;;;;;;2.20;1.25;;;;;;;45.19;12.64;101679.81;4964140;28;20038;-90
2022/09/05 10:33:33;;;;;;;2.58;1.17;;;;;;;44.90;12.15;101687.22;4969853;28;20105;-89
2022/09/05 10:36:21;;;;;;;3.05;1.20;;;;;;;44.67;12.46;101683.13;4965706;28;20031;-91
2022/09/05 10:39:16;;;;;;;3.58;1.30;;;;;;;44.89;12.57;101672.34;4971597;28;20064;-89
2022/09/05 10:41:59;;;;;;;2.75;1.25;;;;;;;44.49;12.53;101678.97;4958176;28;20070;-93
2022/09/05 10:44:44;;;;;;;2.08;1.30;;;;;;;45.29;12.01;101684.50;4971638;28;20042;-90
2022/09/05 10:47:48;;;;;;;3.28;1.58;;;;;;;45.94;12.76;101682.34;4970405;28;20019;-92
2022/09/05 10:50:36;;;;;;;1.58;1.45;;;;;;;46.44;12.23;101671.69;4972775;28;20054;-92
2022/09/05 10:53:18;;;;;;;3.03;1.10;;;;;;;46.35;12.17;101673.50;4969419;28;20551;-92
2022/09/05 10:55:56;;;;;;;3.97;1.52;;;;;;;46.72;11.73;101669.13;4969195;28;20049;-92
2022/09/05 10:58:42;;;;;;;3.03;1.67;;;;;;;47.05;11.88;101666.44;4957487;28;20046;-92
2022/09/05 11:01:36;;;;;;;3.05;1.40;;;;;;;47.32;11.28;101660.97;4974103;28;20030;-91
2022/09/05 11:04:39;;;;;;;1.42;1.30;;;;;;;47.73;11.44;101662.28;4970073;28;20117;-91
2022/09/05 11:07:28;;;;;;;4.25;1.48;;;;;;;47.50;10.91;101664.91;4976252;28;20365;-93
2022/09/05 11:10:22;;;;;;;1.58;1.30;;;;;;;47.13;10.72;101660.13;4981285;28;20495;-92
2022/09/05 11:13:00;;;;;;;1.80;1.40;;;;;;;46.81;11.27;101658.00;4977193;28;20073;-93
2022/09/05 11:15:53;;;;;;;2.80;1.20;;;;;;;47.06;11.99;101656.84;4976184;28;20025;-92
2022/09/05 11:18:50;;;;;;;2.28;1.40;;;;;;;47.13;11.38;101649.69;4986657;28;20067;-91
2022/09/05 11:21:27;;;;;;;2.33;1.30;;;;;;;47.36;11.53;101650.75;4983955;28;20029;-92
2022/09/05 11:23:57;;;;;;;1.65;1.30;;;;;;;47.53;10.93;101653.00;4988134;28;20026;-92
2022/09/05 11:26:41;;;;;;;2.30;1.25;;;;;;;47.93;10.52;101647.81;4977013;28;20022;-87
2022/09/05 11:29:11;;;;;;;4.95;1.80;;;;;;;47.80;10.47;101645.81;4976414;28;20038;-89
2022/09/05 11:31:44;;;;;;;2.97;1.30;;;;;;;48.09;10.74;101648.41;4984752;28;20023;-90
2022/09/05 11:34:31;;;;;;;2.33;1.45;;;;;;;48.47;10.95;101640.56;4985016;28;20115;-91
2022/09/05 11:37:00;;;;;;;1.70;1.50;;;;;;;48.52;9.59;101637.63;4985213;28;20110;-91
2022/09/05 11:39:38;;;;;;;2.28;1.30;;;;;;;48.36;10.15;101642.72;4990664;28;20030;-92
2022/09/05 11:42:39;;;;;;;3.00;1.48;;;;;;;48.20;10.13;101641.38;4980072;28;20038;-91
2022/09/05 11:45:38;;;;;;;3.75;1.27;;;;;;;48.21;10.68;101634.59;4971812;28;20039;-93
2022/09/05 11:48:25;;;;;;;2.67;1.60;;;;;;;48.48;10.61;101627.28;4970788;28;20043;-92
2022/09/05 11:51:21;;;;;;;1.52;1.35;;;;;;;49.08;10.35;101635.53;4970978;28;20042;-93
2022/09/05 11:54:14;;;;;;;2.17;2.00;;;;;;;48.76;10.34;101634.59;4969954;28;20042;-90
2022/09/05 11:57:31;;;;;;;1.83;1.60;;;;;;;49.06;10.54;101633.03;4975266;28;20036;-91
2022/09/05 12:00:09;;;;;;;2.40;2.20;;;;;;;49.18;9.75;101635.31;4894444;29;20064;-90
2022/09/05 12:03:13;;;;;;;3.17;1.80;;;;;;;49.19;10.38;101637.00;4876633;29;20462;-90
2022/09/05 12:05:53;;;;;;;2.33;1.40;;;;;;;49.41;10.29;101632.47;4893487;29;20483;-92
2022/09/05 12:08:34;;;;;;;2.10;1.50;;;;;;;49.51;9.92;101629.44;4893652;29;20037;-91
2022/09/05 12:11:25;;;;;;;2.67;1.40;;;;;;;48.77;9.43;101619.31;4898611;29;20061;-91
2022/09/05 12:14:23;;;;;;;1.88;1.52;;;;;;;48.69;10.05;101619.19;4898232;29;20112;-92
2022/09/05 12:16:55;;;;;;;2.30;1.30;;;;;;;47.85;9.45;101618.31;4880308;29;20036;-91
2022/09/05 12:19:46;;;;;;;3.33;1.50;;;;;;;47.75;10.66;101615.72;4881063;29;20029;-91
2022/09/05 12:22:31;;;;;;;4.55;1.70;;;;;;;48.14;10.62;101605.94;4892839;29;20041;-91
2022/09/05 12:24:59;;;;;;;3.47;1.42;;;;;;;48.13;9.27;101604.28;4892973;29;20069;-92
2022/09/05 12:27:29;;;;;;;1.67;1.45;;;;;;;47.54;10.13;101608.75;4898331;29;20056;-92
2022/09/05 12:30:03;;;;;;;8.45;7.65;;;;;;;47.48;10.44;101610.78;4896116;29;20066;-91
2022/09/05 12:32:32;;;;;;;3.75;2.70;;;;;;;47.95;9.84;101603.19;4865305;29;20419;-94
2022/09/05 12:34:59;;;;;;;2.65;1.52;;;;;;;47.93;9.76;101608.31;4910485;28;20043;-93
2022/09/05 12:37:43;;;;;;;2.10;1.70;;;;;;;47.55;10.94;101601.94;4975524;28;20026;-91